« Back
NWS Peachtree City, Ga » Text Product » ATL Terminal Aerodrome Forecast


Printer-friendly Version
Current Version              Previous Versions:   1  2  3  4  5  6  7  8  9  

Terminal Aerodrome Forecast

944
FTUS42 KFFC 280330 AAC
TAFATL
TAF AMD
KATL 280330Z 2804/2906 15004KT P6SM SCT040 BKN250
      TEMPO 2804/2806 VRB15G25KT 3SM -TSRA BKN015CB
     FM280600 VRB03KT P6SM SCT020 BKN080
     FM281200 15005KT P6SM BKN015
     FM281400 16006KT P6SM VCSH BKN025 PROB30 2816/2822 3SM -TSRA
      BKN030CB
     FM282200 14004KT P6SM BKN035
     FM290400 10003KT P6SM BKN050=



USA.gov is the U.S. government's official web portal to all federal, state and local government web resources and services.